Time;durP1;ratioP1;P1;durP2;ratioP2;P2;SDS_P1;SDS_P2;PMS_P1;PMS_P2;Temp;Humidity;BMP_temperature;BMP_pressure;BME280_temperature;BME280_humidity;BME280_pressure;Samples;Min_cycle;Max_cycle;Signal;HPM_P1;HPM_P2
2021/07/30 00:01:54;;;;;;;17.33;8.90;;;;;;;;;;828311;71;28737;-77
2021/07/30 00:16:58;;;;;;;14.87;9.50;;;;;;;27.60;100.00;123554.15;828251;71;29812;-75
2021/07/30 00:31:59;;;;;;;13.67;9.07;;;;;;;27.51;40.55;107023.14;828232;71;29806;-77
2021/07/30 00:47:04;;;;;;;15.90;8.57;;;;;;;27.35;40.88;94188.66;828415;71;31165;-76
2021/07/30 01:01:52;;;;;;;22.53;9.87;;;;;;;27.43;40.77;165905.00;829012;71;30807;-76
2021/07/30 01:16:53;;;;;;;16.67;10.30;;;;;;;27.35;41.18;94202.14;834284;71;29941;-76
2021/07/30 01:31:57;;;;;;;14.20;8.80;;;;;;;;;;834873;71;31784;-77
2021/07/30 01:46:55;;;;;;;18.63;8.43;;;;;;;27.31;41.32;94182.55;829893;71;30436;-76
2021/07/30 02:01:44;;;;;;;16.60;9.30;;;;;;;;;;827672;71;31749;-76
2021/07/30 02:16:45;;;;;;;15.63;8.87;;;;;;;;;;827762;71;31738;-75
2021/07/30 02:31:42;;;;;;;16.97;9.20;;;;;;;27.16;42.19;94194.81;828498;71;28635;-76
2021/07/30 02:32:45;;;;;;;16.53;9.90;;;;;;;;;;809055;73;26107;-76
2021/07/30 02:46:43;;;;;;;12.57;8.73;;;;;;;27.03;42.35;94209.98;828484;71;28649;-78
2021/07/30 03:02:08;;;;;;;14.50;9.53;;;;;;;27.02;42.55;94218.45;828586;71;28776;-75
2021/07/30 03:17:18;;;;;;;21.83;10.10;;;;;;;;;;818512;71;31925;-77
2021/07/30 03:31:58;;;;;;;17.50;9.37;;;;;;;26.65;43.99;165696.14;828422;71;28625;-76
2021/07/30 03:47:18;;;;;;;16.80;11.23;;;;;;;26.04;45.92;94231.87;827551;71;31715;-77
2021/07/30 04:01:58;;;;;;;16.93;11.10;;;;;;;26.56;45.88;94231.12;834275;71;28772;-77
2021/07/30 04:03:02;;;;;;;17.63;10.90;;;;;;;26.64;46.04;94233.97;822109;72;25584;-76
2021/07/30 04:17:00;;;;;;;20.70;12.57;;;;;;;;;;828448;71;29751;-77
2021/07/30 04:32:23;;;;;;;20.90;11.13;;;;;;;26.95;46.72;94230.06;827351;71;32223;-79
2021/07/30 04:47:04;;;;;;;18.33;13.33;;;;;;;26.81;47.00;94232.30;828448;71;28734;-77
2021/07/30 05:02:09;;;;;;;19.63;13.30;;;;;;;;;;835460;71;28670;-78
2021/07/30 05:16:52;;;;;;;23.97;13.43;;;;;;;26.74;47.65;94247.16;828418;71;29156;-81
2021/07/30 05:31:57;;;;;;;23.60;13.40;;;;;;;;;;835719;71;31001;-81
2021/07/30 05:47:03;;;;;;;18.07;13.63;;;;;;;27.41;45.88;94257.71;828693;71;31750;-80
2021/07/30 06:02:03;;;;;;;18.37;13.80;;;;;;;;;;827592;71;31754;-80
2021/07/30 06:17:01;;;;;;;22.40;14.20;;;;;;;28.73;43.64;94249.82;828257;71;29282;-77
2021/07/30 06:32:12;;;;;;;26.10;14.97;;;;;;;29.43;41.75;94249.62;834088;71;32191;-78
2021/07/30 06:46:49;;;;;;;20.90;14.17;;;;;;;29.81;41.10;94247.34;828235;71;27663;-75
2021/07/30 07:01:51;;;;;;;21.40;13.57;;;;;;;29.99;39.41;94240.78;828283;71;28293;-76
2021/07/30 07:16:58;;;;;;;21.63;13.50;;;;;;;30.96;37.68;94233.94;834341;71;32204;-78
2021/07/30 07:32:01;;;;;;;23.57;14.00;;;;;;;31.33;36.56;94232.59;827082;71;33266;-80
2021/07/30 07:47:00;;;;;;;24.13;12.80;;;;;;;31.63;35.39;94229.31;828154;71;32800;-78
2021/07/30 08:01:48;;;;;;;21.50;13.40;;;;;;;32.07;34.51;94216.02;828057;71;33116;-77
2021/07/30 08:16:45;;;;;;;18.93;14.93;;;;;;;32.83;34.10;94217.80;828256;71;29220;-77
2021/07/30 08:17:50;;;;;;;25.17;14.83;;;;;;;32.79;34.06;94220.62;808786;73;25974;-78
2021/07/30 08:31:51;;;;;;;22.67;15.77;;;;;;;33.61;33.44;94206.77;827519;71;31748;-78
2021/07/30 08:47:12;;;;;;;22.70;14.40;;;;;;;34.79;31.67;94187.91;828485;71;30583;-79
2021/07/30 09:02:14;;;;;;;18.60;13.03;;;;;;;35.63;30.73;94176.52;827849;71;31876;-77
2021/07/30 09:17:01;;;;;;;23.00;15.30;;;;;;;36.95;28.44;94148.90;833986;71;28683;-76
2021/07/30 09:32:19;;;;;;;28.03;13.80;;;;;;;37.22;27.16;94136.97;831137;71;31788;-79
2021/07/30 09:47:21;;;;;;;18.57;12.00;;;;;;;37.52;26.21;94110.98;835986;71;28281;-85
2021/07/30 10:02:33;;;;;;;18.23;11.93;;;;;;;38.01;23.62;94100.66;835589;71;31827;-84
2021/07/30 10:17:12;;;;;;;11.90;10.00;;;;;;;38.45;23.24;94083.95;829228;71;29764;-83
2021/07/30 10:32:10;;;;;;;19.33;10.93;;;;;;;38.67;22.71;94069.14;815933;71;31988;-83
2021/07/30 10:47:26;;;;;;;16.83;10.40;;;;;;;39.03;22.68;94050.58;828025;71;31847;-79
2021/07/30 11:02:24;;;;;;;13.97;9.50;;;;;;;39.15;21.36;94032.82;829447;71;31841;-81
2021/07/30 11:17:16;;;;;;;17.67;9.13;;;;;;;39.11;20.69;94011.08;827747;71;31766;-79
2021/07/30 11:47:08;;;;;;;18.80;8.97;;;;;;;39.48;20.42;93984.91;823743;71;31789;-77
2021/07/30 12:02:04;;;;;;;12.17;8.70;;;;;;;39.49;20.72;93969.95;827222;71;31871;-78
2021/07/30 12:16:53;;;;;;;10.73;7.50;;;;;;;39.59;20.91;93958.27;828424;71;28687;-76
2021/07/30 12:32:21;;;;;;;14.35;8.03;;;;;;;39.56;20.83;93949.65;829046;71;27993;-79
2021/07/30 12:47:05;;;;;;;17.67;8.77;;;;;;;39.38;20.18;93928.79;827830;71;33297;-78
2021/07/30 13:01:43;;;;;;;12.97;8.20;;;;;;;39.02;20.86;93928.92;828559;71;28996;-78
2021/07/30 13:17:09;;;;;;;18.77;8.20;;;;;;;38.65;21.57;93913.14;829531;71;31898;-77
2021/07/30 14:01:49;;;;;;;10.87;7.60;;;;;;;37.79;22.48;93891.52;828507;71;30203;-78
2021/07/30 14:16:58;;;;;;;16.40;8.43;;;;;;;37.37;22.98;93889.22;827642;71;32780;-80
2021/07/30 14:31:44;;;;;;;10.57;7.43;;;;;;;37.10;23.25;93891.07;828261;71;32706;-80
2021/07/30 14:46:41;;;;;;;16.00;8.90;;;;;;;36.85;23.18;93884.99;828167;71;29659;-78
2021/07/30 15:02:11;;;;;;;12.83;8.40;;;;;;;36.46;23.52;93876.15;833807;71;29702;-78
2021/07/30 15:17:12;;;;;;;13.00;7.83;;;;;;;36.18;23.77;93892.80;833932;71;33124;-80
2021/07/30 15:32:11;;;;;;;16.53;8.30;;;;;;;35.83;24.18;93890.64;827850;71;32725;-83
2021/07/30 15:47:22;;;;;;;14.17;8.20;;;;;;;35.57;24.41;93902.63;819797;71;32911;-84
2021/07/30 16:02:16;;;;;;;9.60;7.83;;;;;;;35.26;24.73;93899.63;816764;71;32826;-86
2021/07/30 16:16:56;;;;;;;12.10;7.80;;;;;;;34.84;24.96;93894.94;819541;71;30086;-82
2021/07/30 16:32:08;;;;;;;16.43;8.13;;;;;;;34.36;26.10;93909.72;819644;71;32848;-79
2021/07/30 16:47:04;;;;;;;13.07;7.40;;;;;;;33.76;26.82;93904.28;815874;71;31596;-83
2021/07/30 17:02:08;;;;;;;11.13;8.03;;;;;;;33.28;26.81;93916.11;834036;71;33179;-78
2021/07/30 17:17:03;;;;;;;13.40;8.43;;;;;;;32.80;26.86;93906.83;828261;71;29720;-84
2021/07/30 17:31:51;;;;;;;11.97;8.47;;;;;;;32.43;27.32;93914.02;828203;71;30307;-77
2021/07/30 17:46:59;;;;;;;14.87;9.27;;;;;;;32.02;29.46;93926.71;826674;71;32891;-82
2021/07/30 18:02:01;;;;;;;18.23;12.70;;;;;;;31.60;30.27;93929.02;793487;73;32965;-83
2021/07/30 18:17:18;;;;;;;14.77;9.70;;;;;;;31.17;31.36;93938.49;833795;71;32809;-77
2021/07/30 18:32:01;;;;;;;12.63;8.90;;;;;;;30.78;33.00;93950.47;827875;71;31457;-76
2021/07/30 18:46:44;;;;;;;17.73;10.07;;;;;;;30.29;33.70;93973.84;819227;71;29560;-78
2021/07/30 19:01:56;;;;;;;13.20;9.07;;;;;;;29.83;34.78;93981.81;833994;71;32816;-76
2021/07/30 19:16:49;;;;;;;17.20;10.30;;;;;;;29.65;36.13;93978.16;819663;71;30248;-80
2021/07/30 19:31:59;;;;;;;17.00;10.60;;;;;;;29.59;37.53;93978.50;834277;71;32912;-78
2021/07/30 19:47:04;;;;;;;14.83;10.50;;;;;;;29.44;38.19;93982.11;828057;71;32750;-76
2021/07/30 20:02:01;;;;;;;15.13;11.07;;;;;;;29.05;38.10;93991.23;827045;70;32772;-78
2021/07/30 20:16:53;;;;;;;19.47;11.33;;;;;;;29.00;39.96;93998.50;834437;71;30699;-78
2021/07/30 20:31:43;;;;;;;19.80;11.13;;;;;;;28.83;39.57;93992.88;828217;71;31963;-78
2021/07/30 20:46:47;;;;;;;23.47;11.70;;;;;;;28.78;40.07;93984.68;827453;71;32686;-77
2021/07/30 21:02:07;;;;;;;18.90;11.57;;;;;;;28.73;40.49;93987.86;831710;71;29250;-78
2021/07/30 21:17:00;;;;;;;17.53;11.13;;;;;;;28.51;40.98;93967.30;822308;71;30506;-79
2021/07/30 21:32:02;;;;;;;16.93;12.23;;;;;;;28.68;41.75;93989.71;834288;71;30825;-76
2021/07/30 21:47:03;;;;;;;19.60;11.20;;;;;;;28.58;41.58;93986.64;827485;71;33210;-75
2021/07/30 22:01:56;;;;;;;17.77;12.20;;;;;;;28.48;41.87;93979.64;828168;71;30069;-79
2021/07/30 22:16:56;;;;;;;18.20;11.53;;;;;;;28.45;42.41;93975.69;828536;71;30340;-78
2021/07/30 22:32:04;;;;;;;20.77;13.20;;;;;;;28.43;42.78;93969.91;834049;71;32783;-77
2021/07/30 22:46:53;;;;;;;21.43;13.53;;;;;;;28.36;43.25;93962.72;834069;71;30293;-79
2021/07/30 23:01:59;;;;;;;22.67;13.30;;;;;;;28.21;43.93;93973.63;828254;71;34535;-78
2021/07/30 23:16:58;;;;;;;17.50;12.57;;;;;;;28.12;44.66;93964.70;827446;71;32770;-78
2021/07/30 23:31:54;;;;;;;18.93;12.87;;;;;;;28.12;44.62;93967.41;834146;71;29710;-79
2021/07/30 23:47:10;;;;;;;15.63;12.37;;;;;;;28.04;45.00;93976.23;830121;71;29689;-78
